Time;durP1;ratioP1;P1;durP2;ratioP2;P2;SDS_P1;SDS_P2;PMS_P1;PMS_P2;Temp;Humidity;BMP_temperature;BMP_pressure;BME280_temperature;BME280_humidity;BME280_pressure;Samples;Min_cycle;Max_cycle;Signal;HPM_P1;HPM_P2
2023/07/08 00:00:21;;;;;;;16.53;11.47;;;21.60;99.90;;;22.06;64.71;95267.06;4966984;28;20471;-67
2023/07/08 00:02:49;;;;;;;13.60;10.90;;;21.50;99.90;;;22.05;64.79;95252.06;4966094;28;20459;-60
2023/07/08 00:05:20;;;;;;;14.93;11.40;;;21.50;99.90;;;22.03;65.21;95258.44;4966677;28;20479;-60
2023/07/08 00:07:47;;;;;;;16.60;12.10;;;21.60;99.90;;;22.03;64.73;95258.44;4964261;28;20486;-67
2023/07/08 00:10:17;;;;;;;14.90;12.37;;;21.50;99.90;;;22.00;65.06;95250.78;4968540;28;20483;-59
2023/07/08 00:12:46;;;;;;;15.93;12.20;;;21.50;99.90;;;21.98;65.08;95247.50;4967751;28;20448;-61
2023/07/08 00:15:13;;;;;;;19.43;12.47;;;21.50;99.90;;;21.95;65.04;95245.22;4967000;28;20481;-67
2023/07/08 00:17:41;;;;;;;19.00;11.07;;;21.50;99.90;;;21.93;64.96;95235.72;4966882;28;20455;-59
2023/07/08 00:20:16;;;;;;;13.30;12.00;;;21.40;99.90;;;21.91;65.15;95238.59;4967274;28;20479;-70
2023/07/08 00:22:46;;;;;;;16.43;12.17;;;21.40;99.90;;;21.90;64.75;95233.44;4968075;28;20466;-69
2023/07/08 00:25:15;;;;;;;15.83;11.97;;;21.40;99.90;;;21.87;64.90;95236.53;4962011;28;21013;-60
2023/07/08 00:27:43;;;;;;;14.50;11.60;;;21.40;99.90;;;21.82;65.23;95240.63;4963171;28;20499;-62
2023/07/08 00:30:23;;;;;;;13.60;12.20;;;21.30;99.90;;;21.79;65.39;95249.06;4961606;28;20484;-61
2023/07/08 00:32:53;;;;;;;23.27;11.97;;;21.30;99.90;;;21.78;65.54;95246.59;4961136;28;21164;-60
2023/07/08 00:35:27;;;;;;;13.87;11.47;;;21.30;99.90;;;21.77;65.38;95237.72;4962840;28;21022;-61
2023/07/08 00:38:01;;;;;;;15.57;11.37;;;21.30;99.90;;;21.74;65.67;95235.47;4964571;28;20506;-62
2023/07/08 00:40:30;;;;;;;14.60;11.17;;;21.30;99.90;;;21.73;65.65;95230.31;4960948;28;20511;-68
2023/07/08 00:42:58;;;;;;;14.57;10.60;;;21.20;99.90;;;21.71;65.21;95227.81;4954426;28;20472;-69
2023/07/08 00:45:40;;;;;;;16.73;11.03;;;21.20;99.90;;;21.70;65.77;95225.34;4965750;28;20545;-60
2023/07/08 00:48:21;;;;;;;12.30;10.53;;;21.20;99.90;;;21.71;65.75;95232.38;4957507;28;20492;-60
2023/07/08 00:50:48;;;;;;;13.27;9.60;;;21.20;99.90;;;21.70;65.71;95226.16;4960920;28;21094;-69
2023/07/08 00:53:25;;;;;;;14.47;10.43;;;21.20;99.90;;;21.70;65.81;95220.81;4964944;28;20521;-68
2023/07/08 00:55:56;;;;;;;13.60;10.00;;;21.20;99.90;;;21.70;65.21;95220.00;4962496;28;20490;-68
2023/07/08 00:58:23;;;;;;;12.50;10.60;;;21.20;99.90;;;21.67;65.43;95211.34;4962269;28;20529;-69
2023/07/08 01:00:51;;;;;;;12.93;10.83;;;21.20;99.90;;;21.67;65.59;95216.69;4957751;28;21261;-59
2023/07/08 01:03:18;;;;;;;11.83;10.63;;;21.20;99.90;;;21.67;65.73;95214.03;4972035;28;20455;-60
2023/07/08 01:05:46;;;;;;;23.80;10.83;;;21.20;99.90;;;21.67;65.50;95197.97;4961469;28;20567;-69
2023/07/08 01:08:13;;;;;;;14.37;10.10;;;21.20;99.90;;;21.66;65.56;95200.84;4962148;28;21002;-65
2023/07/08 01:10:44;;;;;;;11.27;10.07;;;21.20;99.90;;;21.65;65.46;95208.03;4959326;28;20917;-67
2023/07/08 01:13:13;;;;;;;12.60;8.33;;;21.20;99.90;;;21.62;65.44;95204.94;4958924;28;20849;-67
2023/07/08 01:15:42;;;;;;;15.83;9.87;;;21.10;99.90;;;21.53;65.78;95206.94;4962159;28;21483;-61
2023/07/08 01:18:10;;;;;;;10.83;8.77;;;21.10;99.90;;;21.45;65.43;95202.56;4961909;28;20459;-67
2023/07/08 01:20:38;;;;;;;9.40;8.50;;;21.00;99.90;;;21.38;65.86;95201.72;4964268;28;21014;-66
2023/07/08 01:23:06;;;;;;;13.13;9.03;;;21.00;99.90;;;21.32;66.07;95205.19;4959089;28;20469;-59
2023/07/08 01:25:34;;;;;;;13.33;8.93;;;20.90;99.90;;;21.25;66.04;95213.16;4966511;28;21431;-60
2023/07/08 01:28:01;;;;;;;9.60;8.63;;;20.80;99.90;;;21.20;66.11;95206.78;4962241;28;20503;-61
2023/07/08 01:30:30;;;;;;;12.47;9.23;;;20.80;99.90;;;21.14;66.14;95201.19;4963866;28;20483;-61
2023/07/08 01:33:00;;;;;;;10.43;8.73;;;20.70;99.90;;;21.10;66.40;95205.28;4965756;28;20480;-61
2023/07/08 01:35:27;;;;;;;18.80;9.37;;;20.70;99.90;;;21.06;66.47;95212.03;4965527;28;20506;-67
2023/07/08 01:37:57;;;;;;;11.53;8.90;;;20.60;99.90;;;21.01;66.21;95206.47;4968356;28;20482;-62
2023/07/08 01:40:29;;;;;;;19.03;8.83;;;20.60;99.90;;;21.00;66.33;95207.47;4963467;28;20475;-66
2023/07/08 01:42:56;;;;;;;11.57;8.77;;;20.60;99.90;;;20.98;66.34;95198.03;4962757;28;20456;-67
2023/07/08 01:45:26;;;;;;;15.90;9.40;;;20.50;99.90;;;20.98;66.27;95190.81;4965531;28;21283;-60
2023/07/08 01:47:56;;;;;;;15.93;9.90;;;20.50;99.90;;;20.99;66.36;95191.63;4965374;28;20927;-66
2023/07/08 01:50:23;;;;;;;16.13;9.47;;;20.50;99.90;;;20.99;66.31;95197.81;4963592;28;20487;-67
2023/07/08 01:52:51;;;;;;;11.40;8.00;;;20.50;99.90;;;20.97;66.45;95194.50;4959010;28;20464;-68
2023/07/08 01:55:23;;;;;;;13.70;10.00;;;20.50;99.90;;;20.95;66.29;95193.88;4959971;28;21566;-67
2023/07/08 01:57:53;;;;;;;13.13;9.23;;;20.50;99.90;;;20.91;66.46;95189.94;4963899;28;20505;-61
2023/07/08 02:00:21;;;;;;;13.37;9.63;;;20.50;99.90;;;20.91;66.93;95192.59;4964500;28;20512;-60
2023/07/08 02:02:48;;;;;;;11.90;8.63;;;20.40;99.90;;;20.89;66.80;95190.13;4961388;28;20451;-60
2023/07/08 02:05:16;;;;;;;9.50;8.50;;;20.40;99.90;;;20.89;66.55;95192.00;4965234;28;20524;-67
2023/07/08 02:07:43;;;;;;;12.20;9.07;;;20.40;99.90;;;20.90;66.52;95199.00;4965155;28;20477;-63
2023/07/08 02:10:11;;;;;;;9.97;9.07;;;20.40;99.90;;;20.88;66.66;95191.16;4965434;28;20479;-66
2023/07/08 02:12:38;;;;;;;11.60;9.00;;;20.40;99.90;;;20.83;66.73;95198.13;4960090;28;20459;-59
2023/07/08 02:15:11;;;;;;;14.30;10.00;;;20.40;99.90;;;20.81;66.80;95192.16;4962865;28;20476;-60
2023/07/08 02:17:37;;;;;;;9.77;8.77;;;20.40;99.90;;;20.77;66.79;95195.22;4964614;28;20537;-61
2023/07/08 02:20:05;;;;;;;15.30;9.00;;;20.30;99.90;;;20.75;66.81;95196.41;4964803;28;20498;-61
2023/07/08 02:22:33;;;;;;;9.07;8.33;;;20.30;99.90;;;20.72;66.91;95197.63;4964438;28;20456;-66
2023/07/08 02:25:00;;;;;;;10.17;8.93;;;20.30;99.90;;;20.70;66.82;95199.69;4964331;28;21000;-66
2023/07/08 02:27:28;;;;;;;10.97;9.27;;;20.30;99.90;;;20.69;67.01;95198.00;4962295;28;20525;-60
2023/07/08 02:29:55;;;;;;;13.10;8.50;;;20.30;99.90;;;20.67;67.08;95205.41;4960106;28;20506;-66
2023/07/08 02:32:24;;;;;;;8.47;7.67;;;20.20;99.90;;;20.66;67.29;95214.44;4956433;28;20452;-66
2023/07/08 02:34:52;;;;;;;12.50;8.77;;;20.20;99.90;;;20.64;67.23;95213.78;4956223;28;20507;-67
2023/07/08 02:37:19;;;;;;;13.97;8.30;;;20.20;99.90;;;20.63;67.10;95220.16;4957184;28;20460;-61
2023/07/08 02:39:46;;;;;;;12.83;7.47;;;20.20;99.90;;;20.60;67.41;95221.38;4969312;28;20479;-60
2023/07/08 02:42:14;;;;;;;9.77;8.20;;;20.20;99.90;;;20.63;67.71;95219.31;4958182;28;20459;-66
2023/07/08 02:44:41;;;;;;;9.87;8.70;;;20.20;99.90;;;20.62;67.43;95218.50;4955033;28;20556;-62
2023/07/08 02:47:08;;;;;;;13.90;8.10;;;20.20;99.90;;;20.62;67.16;95223.00;4968594;28;20996;-60
2023/07/08 02:49:37;;;;;;;12.27;9.60;;;20.20;99.90;;;20.62;67.31;95237.22;4959589;28;20561;-68
2023/07/08 02:52:05;;;;;;;8.97;8.07;;;20.20;99.90;;;20.63;67.44;95251.41;4959568;28;20459;-67
2023/07/08 02:54:32;;;;;;;10.83;8.17;;;20.20;99.90;;;20.62;67.11;95245.25;4961197;28;20919;-60
2023/07/08 02:57:00;;;;;;;15.50;9.10;;;20.20;99.90;;;20.64;67.43;95242.38;4961767;28;20793;-60
2023/07/08 02:59:28;;;;;;;15.03;9.83;;;20.20;99.90;;;20.64;67.68;95242.38;4960431;28;20487;-61
2023/07/08 03:01:55;;;;;;;12.27;8.23;;;20.20;99.90;;;20.64;67.53;95253.06;4961681;28;20496;-66
2023/07/08 03:04:25;;;;;;;11.10;9.10;;;20.20;99.90;;;20.64;67.48;95242.38;4956572;28;20491;-60
2023/07/08 03:06:54;;;;;;;17.13;9.30;;;20.20;99.90;;;20.64;67.52;95245.03;4957812;28;20991;-67
2023/07/08 03:09:21;;;;;;;11.27;9.50;;;20.20;99.90;;;20.65;67.46;95244.03;4961058;28;20568;-61
2023/07/08 03:11:48;;;;;;;11.30;8.63;;;20.20;99.90;;;20.65;67.38;95247.56;4960203;28;20526;-62
2023/07/08 03:14:16;;;;;;;9.00;8.20;;;20.20;99.90;;;20.66;67.40;95241.16;4956735;28;20584;-62
2023/07/08 03:16:43;;;;;;;12.37;8.47;;;20.20;99.90;;;20.68;67.41;95246.31;4958679;28;20471;-68
2023/07/08 03:19:14;;;;;;;17.07;8.73;;;20.20;99.90;;;20.69;67.35;95242.63;4956620;28;20462;-67
2023/07/08 03:21:42;;;;;;;9.80;8.83;;;20.20;99.90;;;20.69;67.55;95240.78;4956374;28;20468;-69
2023/07/08 03:24:12;;;;;;;8.53;7.50;;;20.30;99.90;;;20.70;67.38;95246.97;4956196;28;20574;-61
2023/07/08 03:26:39;;;;;;;13.23;7.83;;;20.20;99.90;;;20.70;67.31;95250.47;4959168;28;20530;-61
2023/07/08 03:29:07;;;;;;;11.77;7.30;;;20.30;99.90;;;20.70;67.25;95255.00;4958228;28;20494;-62
2023/07/08 03:31:34;;;;;;;29.17;8.30;;;20.20;99.90;;;20.69;67.32;95243.47;4963062;28;20463;-69
2023/07/08 03:34:01;;;;;;;11.70;7.80;;;20.20;99.90;;;20.69;67.46;95246.13;4955789;28;20469;-69
2023/07/08 03:36:28;;;;;;;9.87;6.97;;;20.20;99.90;;;20.68;67.32;95241.81;4957797;28;20461;-61
2023/07/08 03:38:57;;;;;;;15.30;7.47;;;20.20;99.90;;;20.69;67.52;95246.13;4960097;28;20456;-69
2023/07/08 03:41:26;;;;;;;18.13;7.20;;;20.20;99.90;;;20.70;67.28;95246.97;4957338;28;20530;-67
2023/07/08 03:43:53;;;;;;;11.13;7.57;;;20.20;99.90;;;20.71;67.17;95241.44;4959783;28;20464;-68
2023/07/08 03:46:22;;;;;;;8.00;7.30;;;20.20;99.90;;;20.73;67.28;95235.91;4974887;28;20593;-63
2023/07/08 03:48:50;;;;;;;9.60;7.27;;;20.30;99.90;;;20.73;67.43;95234.03;4958802;28;20496;-60
2023/07/08 03:51:22;;;;;;;8.17;7.13;;;20.30;99.90;;;20.73;67.54;95235.91;4958575;28;20986;-68
2023/07/08 03:53:49;;;;;;;8.67;7.77;;;20.30;99.90;;;20.72;67.35;95236.91;4960099;28;20463;-60
2023/07/08 03:56:16;;;;;;;15.43;7.80;;;20.30;99.90;;;20.72;67.56;95227.03;4954438;28;20486;-67
2023/07/08 03:58:45;;;;;;;10.30;7.50;;;20.30;99.90;;;20.74;67.46;95226.84;4956307;28;20830;-68
2023/07/08 04:01:15;;;;;;;10.73;7.90;;;20.30;99.90;;;20.75;67.36;95218.63;4960060;28;20869;-68
2023/07/08 04:03:43;;;;;;;10.43;7.33;;;20.30;99.90;;;20.77;67.53;95216.59;4953261;28;20440;-62
2023/07/08 04:06:10;;;;;;;7.90;7.10;;;20.30;99.90;;;20.82;67.37;95225.88;4957017;28;20571;-61
2023/07/08 04:08:38;;;;;;;14.50;7.53;;;20.40;99.90;;;20.84;67.42;95231.88;4958388;28;20750;-60
2023/07/08 04:11:05;;;;;;;13.87;7.33;;;20.40;99.90;;;20.87;67.15;95234.16;4977372;28;20506;-61
2023/07/08 04:13:33;;;;;;;8.70;6.63;;;20.40;99.90;;;20.91;67.20;95232.72;4956865;28;20990;-61
2023/07/08 04:16:06;;;;;;;11.20;7.07;;;20.40;99.90;;;20.92;67.12;95234.38;4955617;28;20516;-61
2023/07/08 04:18:33;;;;;;;14.50;7.77;;;20.50;99.90;;;20.96;66.91;95241.00;4959588;28;20444;-67
2023/07/08 04:21:02;;;;;;;12.83;8.70;;;20.50;99.90;;;20.98;67.33;95235.47;4962031;28;20468;-61
2023/07/08 04:23:29;;;;;;;12.70;8.27;;;20.50;99.90;;;20.99;67.30;95235.25;4967178;28;20463;-68
2023/07/08 04:25:56;;;;;;;14.70;7.83;;;20.60;99.90;;;21.03;67.18;95233.81;4966145;28;21009;-60
2023/07/08 04:28:24;;;;;;;8.57;6.80;;;20.50;99.90;;;21.08;67.13;95233.25;4973519;28;20517;-70
2023/07/08 04:30:51;;;;;;;15.73;7.87;;;20.60;99.90;;;21.11;67.09;95239.00;4966425;28;20479;-61
2023/07/08 04:33:20;;;;;;;10.17;7.10;;;20.60;99.90;;;21.14;67.00;95237.81;4962865;28;20498;-60
2023/07/08 04:35:47;;;;;;;12.70;8.27;;;20.70;99.90;;;21.19;66.93;95240.72;4967734;28;20471;-61
2023/07/08 04:38:19;;;;;;;11.23;8.10;;;20.70;99.90;;;21.27;67.07;95250.44;4974406;28;20451;-69
2023/07/08 04:40:46;;;;;;;14.30;6.70;;;20.80;99.90;;;21.33;66.87;95251.50;4966253;28;20510;-60
2023/07/08 04:43:14;;;;;;;10.90;8.03;;;20.90;99.90;;;21.41;66.61;95254.84;4965284;28;20460;-66
2023/07/08 04:45:42;;;;;;;9.87;7.57;;;20.90;99.90;;;21.46;66.24;95247.03;4965027;28;21232;-60
2023/07/08 04:48:12;;;;;;;11.03;7.67;;;21.00;99.90;;;21.49;66.10;95244.00;4959858;28;20564;-70
2023/07/08 04:50:42;;;;;;;10.67;8.00;;;21.00;99.90;;;21.56;66.47;95243.22;4964548;28;20525;-60
2023/07/08 04:53:09;;;;;;;11.53;8.07;;;21.10;99.90;;;21.60;66.23;95242.59;4963473;28;20577;-60
2023/07/08 04:55:36;;;;;;;7.77;6.97;;;21.10;99.90;;;21.66;66.24;95257.06;4960945;28;20483;-70
2023/07/08 04:58:04;;;;;;;9.63;7.60;;;21.10;99.90;;;21.72;66.03;95252.75;4963188;28;20451;-68
2023/07/08 05:00:31;;;;;;;10.30;7.47;;;21.20;99.90;;;21.76;66.24;95249.47;4956508;28;21093;-68
2023/07/08 05:02:58;;;;;;;10.80;7.60;;;21.30;99.90;;;21.81;66.01;95259.56;4962712;28;21074;-60
2023/07/08 05:05:25;;;;;;;11.27;7.33;;;21.30;99.90;;;21.88;65.42;95256.94;4966020;28;21003;-68
2023/07/08 05:07:54;;;;;;;9.70;7.80;;;21.40;99.90;;;21.94;65.85;95259.63;4958758;28;20521;-60
2023/07/08 05:10:22;;;;;;;9.27;8.37;;;21.40;99.90;;;22.02;65.27;95261.31;4961639;28;20514;-62
2023/07/08 05:12:49;;;;;;;9.33;7.30;;;21.50;99.90;;;22.07;64.91;95248.13;4961634;28;20495;-60
2023/07/08 05:15:17;;;;;;;13.00;7.80;;;21.60;99.90;;;22.09;64.98;95246.09;4962600;28;21036;-60
2023/07/08 05:17:44;;;;;;;8.90;7.43;;;21.60;99.90;;;22.15;64.71;95263.19;4961579;28;20561;-60
2023/07/08 05:20:14;;;;;;;21.00;7.83;;;21.60;99.90;;;22.22;65.37;95264.03;4964476;28;20530;-63
2023/07/08 05:22:42;;;;;;;9.47;8.17;;;21.70;99.90;;;22.31;64.49;95268.22;4961312;28;20455;-61
2023/07/08 05:25:12;;;;;;;10.83;8.20;;;21.80;99.90;;;22.43;65.22;95262.25;4962279;28;20508;-60
2023/07/08 05:27:39;;;;;;;9.07;8.00;;;21.90;99.90;;;22.54;64.20;95272.34;4960017;28;20471;-69
2023/07/08 05:30:08;;;;;;;15.30;8.50;;;22.00;99.90;;;22.65;63.65;95276.28;4962733;28;20506;-69
2023/07/08 05:32:35;;;;;;;10.93;8.33;;;22.10;99.90;;;22.76;63.34;95272.16;4960125;28;20969;-69
2023/07/08 05:35:03;;;;;;;26.53;8.00;;;22.20;99.90;;;22.91;63.57;95280.81;4970887;28;20483;-70
2023/07/08 05:37:30;;;;;;;8.80;7.83;;;22.30;99.90;;;23.04;62.75;95274.66;4961075;28;20486;-68
2023/07/08 05:40:00;;;;;;;8.23;7.40;;;22.40;99.90;;;23.17;62.43;95274.66;4962644;28;20501;-60
2023/07/08 05:42:28;;;;;;;14.63;7.53;;;22.60;99.90;;;23.33;62.48;95286.81;4964175;28;20472;-69
2023/07/08 05:44:55;;;;;;;13.63;7.13;;;22.70;99.90;;;23.50;62.33;95273.78;4960879;28;20567;-67
2023/07/08 05:47:23;;;;;;;9.00;8.20;;;22.90;99.90;;;23.68;61.64;95280.34;4959589;28;20455;-68
2023/07/08 05:49:50;;;;;;;10.60;8.63;;;23.00;99.90;;;23.80;60.92;95290.19;4964227;28;20580;-66
2023/07/08 05:52:17;;;;;;;18.80;8.83;;;23.20;99.90;;;23.92;60.30;95287.72;4962074;28;20485;-66
2023/07/08 05:54:44;;;;;;;9.83;8.60;;;23.30;99.90;;;23.99;59.90;95291.19;4965706;28;20502;-66
2023/07/08 05:57:12;;;;;;;8.30;7.53;;;23.40;99.90;;;23.98;59.94;95296.75;4964531;28;20546;-67
2023/07/08 05:59:43;;;;;;;10.67;7.87;;;23.40;99.90;;;23.95;59.88;95298.03;4964851;28;20511;-62
2023/07/08 06:02:12;;;;;;;14.00;9.60;;;23.40;99.90;;;23.91;59.48;95296.81;4960593;28;20467;-64
2023/07/08 06:04:39;;;;;;;9.27;8.33;;;23.40;99.90;;;23.87;59.37;95300.94;4964914;28;20529;-62
2023/07/08 06:07:07;;;;;;;12.47;8.67;;;23.30;99.90;;;23.89;58.94;95298.03;4964616;28;20455;-68
2023/07/08 06:09:34;;;;;;;8.50;7.63;;;23.30;99.90;;;23.97;58.50;95300.50;4980480;28;20591;-66
2023/07/08 06:12:02;;;;;;;12.10;7.33;;;23.40;99.70;;;24.11;57.94;95295.91;4964633;28;20459;-62
2023/07/08 06:14:29;;;;;;;7.97;7.27;;;23.50;99.10;;;24.28;58.36;95305.13;4964802;28;20479;-68
2023/07/08 06:16:59;;;;;;;11.23;7.30;;;23.60;99.50;;;24.46;58.28;95293.66;4961552;28;20516;-68
2023/07/08 06:19:26;;;;;;;18.03;7.30;;;23.80;99.30;;;24.65;58.02;95296.47;4964745;28;20817;-67
2023/07/08 06:21:53;;;;;;;10.03;7.10;;;24.00;99.00;;;24.79;57.19;95305.25;4961797;28;20455;-60
2023/07/08 06:24:20;;;;;;;10.23;6.97;;;24.10;98.60;;;24.96;56.39;95310.94;4964231;28;20491;-66
2023/07/08 06:26:48;;;;;;;7.80;7.00;;;24.30;98.30;;;25.08;56.45;95311.03;4966031;28;20851;-61
2023/07/08 06:29:15;;;;;;;9.37;7.03;;;24.40;98.00;;;25.21;55.43;95313.63;4964430;28;20950;-67
2023/07/08 06:31:43;;;;;;;9.70;6.50;;;24.50;97.30;;;25.32;54.32;95309.41;4960963;28;20462;-61
2023/07/08 06:34:12;;;;;;;7.23;6.60;;;24.70;96.50;;;25.47;55.92;95303.66;4963831;28;20455;-68
2023/07/08 06:36:39;;;;;;;17.80;7.70;;;24.80;97.30;;;25.63;53.81;95308.47;4961684;28;20483;-67
2023/07/08 06:39:08;;;;;;;13.53;6.00;;;24.90;96.20;;;25.81;52.72;95309.53;4967729;28;20550;-67
2023/07/08 06:41:35;;;;;;;7.73;6.57;;;25.10;95.40;;;25.92;53.61;95304.22;4960323;28;20517;-67
2023/07/08 06:44:03;;;;;;;16.90;6.37;;;25.30;95.50;;;26.04;51.64;95298.09;4960418;28;20458;-68
2023/07/08 06:46:30;;;;;;;10.63;7.23;;;25.40;94.00;;;26.12;52.37;95303.19;4955738;28;20478;-62
2023/07/08 06:48:58;;;;;;;7.47;6.77;;;25.50;94.10;;;26.24;50.35;95304.06;4954272;28;20466;-62
2023/07/08 06:51:26;;;;;;;7.60;6.43;;;25.60;92.90;;;26.34;52.01;95300.00;4957511;28;20502;-67
2023/07/08 06:53:54;;;;;;;8.73;6.40;;;25.70;93.70;;;26.43;52.22;95302.16;4976057;28;20474;-61
2023/07/08 06:56:21;;;;;;;12.77;5.90;;;25.70;93.70;;;26.55;49.87;95310.25;4957968;28;20898;-61
2023/07/08 06:58:49;;;;;;;10.77;5.67;;;25.90;92.00;;;26.61;50.62;95316.63;4959542;28;20455;-67
2023/07/08 07:01:16;;;;;;;11.30;7.03;;;25.90;92.30;;;26.62;50.38;95318.28;4979159;28;20676;-67
2023/07/08 07:03:44;;;;;;;9.00;7.37;;;26.00;92.00;;;26.64;50.67;95318.88;4963000;28;20447;-68
2023/07/08 07:06:12;;;;;;;8.90;6.23;;;26.00;91.90;;;26.65;50.38;95320.53;4964234;28;20475;-66
2023/07/08 07:08:40;;;;;;;7.53;5.97;;;26.00;91.80;;;26.65;49.70;95323.22;4964533;28;20516;-67
2023/07/08 07:11:08;;;;;;;9.20;6.87;;;26.00;91.00;;;26.71;50.58;95322.34;4960323;28;20609;-67
2023/07/08 07:13:35;;;;;;;7.10;6.50;;;26.10;92.20;;;26.80;50.67;95323.66;4965086;28;20459;-67
2023/07/08 07:16:02;;;;;;;8.00;7.30;;;26.10;92.10;;;26.93;50.24;95322.63;4964191;28;20478;-67
2023/07/08 07:18:30;;;;;;;11.63;7.20;;;26.30;91.60;;;27.04;49.93;95334.50;4981539;28;20467;-67
2023/07/08 07:20:59;;;;;;;7.20;6.50;;;26.30;91.40;;;27.12;49.61;95331.44;4964203;28;20478;-66
2023/07/08 07:23:26;;;;;;;7.10;6.13;;;26.40;90.70;;;27.12;48.58;95344.16;4964401;28;20451;-67
2023/07/08 07:25:55;;;;;;;9.27;7.20;;;26.50;89.70;;;26.99;49.33;95350.59;4966828;28;20475;-68
2023/07/08 07:28:22;;;;;;;21.33;6.80;;;26.40;90.40;;;26.89;48.97;95353.00;4969585;28;21195;-68
2023/07/08 07:30:57;;;;;;;6.10;5.60;;;26.30;89.70;;;26.69;49.42;95346.00;4965816;28;20506;-66
2023/07/08 07:33:25;;;;;;;8.90;6.97;;;26.10;90.10;;;26.57;50.00;95343.25;4972314;28;21023;-66
2023/07/08 07:35:52;;;;;;;10.00;6.80;;;26.00;90.60;;;26.46;50.29;95349.41;4966573;28;20572;-62
2023/07/08 07:38:20;;;;;;;6.37;5.77;;;25.90;90.60;;;26.38;50.01;95361.34;4967281;28;20467;-63
2023/07/08 07:40:47;;;;;;;7.47;5.97;;;25.80;90.50;;;26.33;50.06;95347.72;4969941;28;20866;-60
2023/07/08 07:43:16;;;;;;;6.73;5.83;;;25.80;90.20;;;26.26;49.79;95344.28;4963878;28;20463;-61
2023/07/08 07:45:43;;;;;;;14.23;5.60;;;25.70;90.00;;;26.24;49.69;95347.22;4959797;28;20483;-61
2023/07/08 07:48:10;;;;;;;7.73;6.43;;;25.70;90.20;;;26.22;49.95;95343.09;4970759;28;20462;-64
2023/07/08 07:50:38;;;;;;;9.57;6.87;;;25.70;90.30;;;26.17;49.82;95345.66;4961533;28;20530;-66
2023/07/08 07:53:06;;;;;;;11.33;6.90;;;25.60;90.10;;;26.10;49.88;95346.56;4968808;28;20490;-68
2023/07/08 07:55:33;;;;;;;11.33;6.50;;;25.60;90.10;;;26.07;50.40;95352.41;4963089;28;20512;-68
2023/07/08 07:58:00;;;;;;;7.80;6.67;;;25.60;90.50;;;26.02;50.54;95348.72;4973855;28;20471;-68
2023/07/08 08:00:29;;;;;;;8.20;6.40;;;25.40;90.40;;;25.97;50.31;95352.06;4972012;28;20479;-68
2023/07/08 08:02:57;;;;;;;7.70;6.30;;;25.40;90.50;;;25.93;50.55;95351.69;4965815;28;21010;-70
2023/07/08 08:05:24;;;;;;;6.33;5.43;;;25.40;90.30;;;25.88;50.12;95348.00;4970878;28;20475;-65
2023/07/08 08:07:52;;;;;;;7.73;6.90;;;25.30;90.20;;;25.79;50.83;95360.13;4968673;28;20877;-66
2023/07/08 08:10:19;;;;;;;10.10;7.87;;;25.30;90.70;;;25.74;50.85;95353.53;4965351;28;20501;-66
2023/07/08 08:12:50;;;;;;;7.50;6.80;;;25.20;90.70;;;25.71;51.18;95345.06;4979627;28;20524;-68
2023/07/08 08:15:17;;;;;;;7.50;6.70;;;25.20;90.70;;;25.70;50.56;95344.25;4972684;28;20490;-66
2023/07/08 08:17:48;;;;;;;7.10;6.50;;;25.20;90.50;;;25.71;51.07;95348.59;4974100;28;20462;-69
2023/07/08 08:20:16;;;;;;;10.87;6.40;;;25.20;90.70;;;25.72;51.08;95342.16;4967617;28;20995;-68
2023/07/08 08:22:44;;;;;;;9.40;6.80;;;25.20;90.70;;;25.70;50.78;95338.03;4976139;28;21032;-69
2023/07/08 08:25:12;;;;;;;9.30;5.90;;;25.10;90.60;;;25.75;50.96;95333.63;4976375;28;20535;-68
2023/07/08 08:27:39;;;;;;;10.93;6.90;;;25.20;90.70;;;25.95;50.09;95338.00;4971210;28;20788;-67
2023/07/08 08:30:08;;;;;;;7.57;6.97;;;25.30;90.20;;;26.20;51.00;95340.63;4983448;28;20491;-66
2023/07/08 08:32:35;;;;;;;9.30;8.47;;;25.60;90.80;;;26.50;50.75;95349.78;4979568;28;20797;-68
2023/07/08 08:35:04;;;;;;;14.70;6.73;;;25.80;90.90;;;26.77;50.20;95337.63;4981253;28;20544;-62
2023/07/08 08:37:31;;;;;;;10.37;7.27;;;26.10;90.50;;;27.04;49.85;95331.81;4980510;28;20459;-63
2023/07/08 08:39:59;;;;;;;7.77;6.97;;;26.40;90.50;;;27.36;49.68;95334.22;4980445;28;20483;-64
2023/07/08 08:42:32;;;;;;;7.50;6.30;;;26.60;90.20;;;27.68;49.24;95329.28;4966424;28;20520;-67
2023/07/08 08:44:59;;;;;;;8.00;6.20;;;26.90;89.60;;;27.98;47.26;95320.22;4986759;28;20486;-62
2023/07/08 08:47:37;;;;;;;10.30;6.80;;;27.30;86.90;;;28.20;46.98;95328.53;4962743;28;20504;-64
2023/07/08 08:50:25;;;;;;;9.17;6.47;;;27.50;85.20;;;28.29;46.43;95328.13;4972668;28;20479;-67
2023/07/08 08:52:54;;;;;;;11.10;5.97;;;27.60;84.00;;;28.22;46.46;95329.09;4974381;28;20451;-61
2023/07/08 08:55:23;;;;;;;9.40;6.93;;;27.60;83.10;;;28.21;46.94;95327.47;4984170;28;20821;-61
2023/07/08 08:57:56;;;;;;;35.77;6.80;;;27.60;83.80;;;28.25;46.36;95333.22;4966343;28;21196;-61
2023/07/08 09:00:29;;;;;;;7.90;6.00;;;27.60;82.90;;;28.29;47.18;95331.69;4962985;28;20471;-68
2023/07/08 09:03:01;;;;;;;8.97;7.00;;;27.70;83.70;;;28.33;45.03;95329.31;4960455;28;20975;-67
2023/07/08 09:05:30;;;;;;;12.43;6.10;;;27.70;80.70;;;28.29;47.12;95330.84;4959992;28;20475;-61
2023/07/08 09:08:05;;;;;;;8.60;6.63;;;27.60;82.90;;;28.18;46.23;95330.66;4962220;28;20508;-67
2023/07/08 09:10:41;;;;;;;6.10;5.60;;;27.60;81.70;;;28.01;46.42;95332.44;4961162;28;20619;-68
2023/07/08 09:13:11;;;;;;;20.13;9.43;;;27.50;81.70;;;27.87;47.42;95340.78;4964261;28;20483;-67
2023/07/08 09:15:39;;;;;;;9.67;6.00;;;27.30;82.90;;;27.69;46.32;95330.94;4966000;28;21064;-67
2023/07/08 09:18:18;;;;;;;7.80;7.00;;;27.20;81.20;;;27.46;46.88;95334.44;4966824;28;20462;-60
2023/07/08 09:20:47;;;;;;;16.33;6.97;;;27.00;82.40;;;27.33;47.61;95324.72;4960631;28;20540;-67
2023/07/08 09:23:21;;;;;;;7.30;6.60;;;26.80;83.00;;;27.22;46.99;95330.06;4965474;28;20451;-67
2023/07/08 09:25:52;;;;;;;7.23;6.63;;;26.70;81.60;;;27.09;47.85;95331.91;4963229;28;20471;-68
2023/07/08 09:28:19;;;;;;;6.47;5.87;;;26.50;83.00;;;26.99;47.04;95323.59;4965944;28;20859;-65
2023/07/08 09:30:48;;;;;;;8.50;6.00;;;26.50;81.50;;;26.89;47.71;95337.63;4961928;28;21023;-67
2023/07/08 09:33:15;;;;;;;6.97;6.27;;;26.30;83.10;;;26.86;48.25;95324.59;4961291;28;20451;-67
2023/07/08 09:35:44;;;;;;;7.03;6.40;;;26.30;84.00;;;26.86;47.99;95323.78;4965533;28;21054;-67
2023/07/08 09:38:16;;;;;;;8.30;6.03;;;26.30;83.70;;;26.89;48.42;95323.31;4963551;28;20520;-68
2023/07/08 09:40:48;;;;;;;11.00;6.70;;;26.30;84.30;;;26.95;48.15;95314.28;4966964;28;20482;-68
2023/07/08 09:43:24;;;;;;;6.67;5.70;;;26.30;84.40;;;27.00;47.88;95306.31;4966508;28;20447;-67
2023/07/08 09:45:52;;;;;;;7.00;6.40;;;26.40;84.10;;;27.09;47.90;95307.63;4958285;28;20475;-66
2023/07/08 09:48:25;;;;;;;5.37;4.90;;;26.50;84.10;;;27.22;47.80;95303.03;4961741;28;20455;-67
2023/07/08 09:50:54;;;;;;;7.10;5.40;;;26.60;83.90;;;27.36;48.24;95309.91;4962187;28;20523;-67
2023/07/08 09:53:22;;;;;;;7.07;5.23;;;26.70;84.00;;;27.50;47.30;95303.22;4965899;28;20466;-67
2023/07/08 09:55:50;;;;;;;6.03;5.40;;;26.80;83.20;;;27.67;47.74;95299.78;4965791;28;20487;-68
2023/07/08 09:58:25;;;;;;;6.27;5.67;;;27.00;83.20;;;27.86;45.98;95295.06;4959422;28;20447;-60
2023/07/08 10:00:55;;;;;;;12.37;4.70;;;27.20;81.60;;;28.00;46.26;95298.38;4962106;28;21065;-61
2023/07/08 10:03:24;;;;;;;8.40;5.30;;;27.30;81.20;;;28.07;46.55;95301.72;4964807;28;20971;-69
2023/07/08 10:05:56;;;;;;;5.33;4.83;;;27.40;80.50;;;28.13;46.43;95297.25;4966439;28;20475;-67
2023/07/08 10:08:30;;;;;;;7.57;4.77;;;27.60;80.60;;;28.22;45.90;95295.81;4965955;28;20951;-61
2023/07/08 10:11:03;;;;;;;5.20;4.80;;;27.60;80.20;;;28.30;45.80;95281.09;4965625;28;20498;-66
2023/07/08 10:13:39;;;;;;;4.87;4.47;;;27.70;80.30;;;28.36;46.04;95285.53;4965560;28;20458;-61
2023/07/08 10:16:25;;;;;;;6.33;4.80;;;27.70;79.90;;;28.43;44.99;95283.53;4966479;28;20462;-61
2023/07/08 10:18:52;;;;;;;5.23;4.83;;;27.80;78.70;;;28.42;44.62;95289.97;4965151;28;20458;-68
2023/07/08 10:21:28;;;;;;;5.43;4.93;;;27.80;77.50;;;28.42;44.61;95271.03;4965017;28;20878;-62